Time;durP1;ratioP1;P1;durP2;ratioP2;P2;SDS_P1;SDS_P2;PMS_P1;PMS_P2;Temp;Humidity;BMP_temperature;BMP_pressure;BME280_temperature;BME280_humidity;BME280_pressure;Samples;Min_cycle;Max_cycle;Signal;HPM_P1;HPM_P2
2023/10/18 00:01:05;;;;;;;12.02;5.15;;;6.10;99.90;;;;;;5095549;28;20063;-73
2023/10/18 00:03:32;;;;;;;11.68;4.88;;;6.10;99.90;;;;;;5095377;28;20480;-73
2023/10/18 00:06:00;;;;;;;11.25;4.35;;;6.10;99.90;;;;;;5094042;28;20462;-73
2023/10/18 00:08:26;;;;;;;9.15;5.07;;;6.10;99.90;;;;;;5094048;28;20108;-73
2023/10/18 00:10:53;;;;;;;10.20;4.95;;;6.20;99.90;;;;;;5094259;28;20480;-73
2023/10/18 00:13:22;;;;;;;13.88;5.60;;;6.10;99.90;;;;;;5093955;28;20019;-73
2023/10/18 00:15:52;;;;;;;;;;;6.10;99.90;;;;;;5095472;28;20407;-73
2023/10/18 00:18:21;;;;;;;14.23;5.55;;;6.10;99.90;;;;;;5095289;28;19966;-73
2023/10/18 00:20:47;;;;;;;12.80;5.13;;;6.10;99.90;;;;;;5095239;28;20177;-73
2023/10/18 00:23:14;;;;;;;15.93;6.00;;;6.10;99.90;;;;;;5095137;28;20028;-73
2023/10/18 00:25:39;;;;;;;11.57;5.90;;;6.10;99.90;;;;;;5095050;28;20110;-73
2023/10/18 00:28:05;;;;;;;14.93;5.60;;;6.10;99.90;;;;;;5093530;28;20498;-74
2023/10/18 00:30:31;;;;;;;12.15;4.63;;;6.10;99.90;;;;;;5093697;28;20030;-73
2023/10/18 00:32:57;;;;;;;10.95;5.57;;;6.10;99.90;;;;;;5094827;28;20024;-73
2023/10/18 00:35:29;;;;;;;11.45;5.38;;;6.10;99.90;;;;;;5093839;28;20119;-73
2023/10/18 00:37:57;;;;;;;12.63;5.88;;;6.10;99.90;;;;;;5093722;28;20020;-73
2023/10/18 00:43:22;;;;;;;12.05;5.85;;;6.00;99.90;;;;;;5095044;28;20060;-73
2023/10/18 00:45:53;;;;;;;13.98;5.38;;;6.00;99.90;;;;;;5094947;28;20078;-73
2023/10/18 00:48:20;;;;;;;11.82;5.53;;;6.00;99.90;;;;;;5094722;28;20055;-73
2023/10/18 00:50:48;;;;;;;13.13;5.57;;;6.00;99.90;;;;;;5094845;28;20429;-73
2023/10/18 00:53:20;;;;;;;10.73;4.93;;;6.00;99.90;;;;;;5093209;28;20070;-74
2023/10/18 00:55:57;;;;;;;12.13;5.32;;;5.90;99.90;;;;;;5093187;28;20055;-73
2023/10/18 00:58:23;;;;;;;11.18;5.13;;;5.90;99.90;;;;;;5094538;28;20519;-73
2023/10/18 01:00:52;;;;;;;12.32;5.80;;;5.90;99.90;;;;;;5094574;28;20062;-73
2023/10/18 01:03:29;;;;;;;10.50;4.75;;;;;;;;;;5094662;28;20127;-73
2023/10/18 01:06:12;;;;;;;12.38;5.82;;;5.90;99.90;;;;;;5094529;28;20509;-73
2023/10/18 01:08:38;;;;;;;11.60;5.65;;;5.90;99.90;;;;;;5094146;28;20027;-73
2023/10/18 01:11:10;;;;;;;12.13;5.20;;;5.90;99.90;;;;;;5094107;28;20024;-73
2023/10/18 01:13:41;;;;;;;16.02;5.57;;;5.90;99.90;;;;;;5093047;28;20035;-73
2023/10/18 01:16:14;;;;;;;11.07;4.65;;;5.90;99.90;;;;;;5093838;28;20020;-73
2023/10/18 01:18:43;;;;;;;13.63;4.85;;;5.80;99.90;;;;;;5094665;28;20095;-73
2023/10/18 01:21:17;;;;;;;11.80;5.60;;;5.80;99.90;;;;;;5094009;28;20043;-73
2023/10/18 01:23:53;;;;;;;14.68;5.53;;;5.80;99.90;;;;;;5094061;28;20526;-73
2023/10/18 01:26:22;;;;;;;13.50;6.50;;;5.80;99.90;;;;;;5093931;28;20017;-73
2023/10/18 01:28:48;;;;;;;14.10;6.28;;;5.80;99.90;;;;;;5094282;28;20417;-73
2023/10/18 01:31:17;;;;;;;11.50;5.18;;;5.70;99.90;;;;;;5092594;28;20023;-73
2023/10/18 01:33:47;;;;;;;;;;;5.80;99.90;;;;;;5094093;28;20031;-73
2023/10/18 01:36:15;;;;;;;16.75;5.88;;;5.80;99.90;;;;;;5094138;28;20397;-72
2023/10/18 01:38:56;;;;;;;10.57;5.03;;;5.80;99.90;;;;;;5093878;28;20042;-72
2023/10/18 01:41:37;;;;;;;14.50;5.80;;;5.70;99.90;;;;;;5092351;28;20058;-72
2023/10/18 01:44:07;;;;;;;13.30;5.40;;;5.70;99.90;;;;;;5092303;28;20051;-72
2023/10/18 01:46:34;;;;;;;13.20;5.30;;;5.70;99.90;;;;;;5093329;28;20032;-72
2023/10/18 01:49:01;;;;;;;12.38;5.75;;;5.70;99.90;;;;;;5093483;28;20472;-72
2023/10/18 01:51:27;;;;;;;12.93;5.07;;;5.70;99.90;;;;;;5093668;28;20399;-72
2023/10/18 01:53:55;;;;;;;13.98;5.70;;;5.70;99.90;;;;;;5093415;28;20020;-72
2023/10/18 01:56:21;;;;;;;14.63;5.05;;;5.70;99.90;;;;;;5093394;28;20157;-73
2023/10/18 01:58:50;;;;;;;10.82;5.13;;;5.70;99.90;;;;;;5093522;28;20141;-73
2023/10/18 02:01:16;;;;;;;12.77;5.07;;;5.60;99.90;;;;;;5093953;28;20020;-73
2023/10/18 02:03:44;;;;;;;13.95;5.57;;;5.70;99.90;;;;;;5094017;28;20091;-73
2023/10/18 02:06:13;;;;;;;10.25;5.25;;;5.70;99.90;;;;;;5093390;28;20434;-73
2023/10/18 02:08:40;;;;;;;12.32;5.10;;;5.70;99.90;;;;;;5091983;28;20017;-73
2023/10/18 02:11:07;;;;;;;10.63;4.75;;;5.70;99.90;;;;;;5093356;28;20061;-73
2023/10/18 02:13:33;;;;;;;12.48;5.70;;;5.70;99.90;;;;;;5093545;28;20012;-73
2023/10/18 02:15:58;;;;;;;15.65;6.00;;;5.70;99.90;;;;;;5093176;28;20081;-73
2023/10/18 02:18:26;;;;;;;10.13;5.57;;;5.70;99.90;;;;;;5093382;28;20495;-73
2023/10/18 02:20:52;;;;;;;12.13;5.15;;;5.70;99.90;;;;;;5091983;28;20019;-73
2023/10/18 02:23:21;;;;;;;12.27;5.15;;;5.70;99.90;;;;;;5092016;28;20028;-73
2023/10/18 02:25:47;;;;;;;;;;;5.60;99.90;;;;;;5092460;28;20043;-73
2023/10/18 02:28:25;;;;;;;11.60;4.30;;;5.70;99.90;;;;;;5096533;28;19908;-73
2023/10/18 02:30:55;;;;;;;12.25;5.60;;;5.70;99.90;;;;;;5097229;28;20032;-73
2023/10/18 02:33:39;;;;;;;11.40;5.40;;;5.70;99.90;;;;;;5097212;28;20042;-73
2023/10/18 02:36:07;;;;;;;11.63;4.68;;;5.70;99.90;;;;;;5097110;28;20020;-73
2023/10/18 02:38:34;;;;;;;9.55;4.38;;;5.60;99.90;;;;;;5095853;28;20024;-73
2023/10/18 02:41:04;;;;;;;12.88;5.28;;;5.60;99.90;;;;;;5097028;28;20077;-73
2023/10/18 02:43:30;;;;;;;12.00;4.97;;;5.60;99.90;;;;;;5096993;28;20498;-73
2023/10/18 02:45:55;;;;;;;13.45;5.47;;;5.60;99.90;;;;;;5096911;28;20032;-73
2023/10/18 02:48:24;;;;;;;13.07;5.65;;;5.60;99.90;;;;;;5095732;28;20126;-73
2023/10/18 02:50:57;;;;;;;14.15;4.85;;;5.60;99.90;;;;;;5096861;28;20032;-73
2023/10/18 02:53:23;;;;;;;14.15;5.43;;;5.60;99.90;;;;;;5096852;28;20024;-73
2023/10/18 02:55:55;;;;;;;10.07;4.82;;;5.60;99.90;;;;;;5096715;28;20043;-73
2023/10/18 02:58:22;;;;;;;14.73;6.05;;;5.70;99.90;;;;;;5095520;28;20023;-73
2023/10/18 03:00:47;;;;;;;11.75;5.07;;;5.70;99.90;;;;;;5095348;28;20052;-73
2023/10/18 03:03:13;;;;;;;12.15;5.30;;;5.70;99.90;;;;;;5096626;28;20466;-73
2023/10/18 03:05:40;;;;;;;12.85;5.70;;;5.70;99.90;;;;;;5096580;28;20029;-73
2023/10/18 03:08:08;;;;;;;13.23;4.75;;;5.70;99.90;;;;;;5096530;28;20479;-73
2023/10/18 03:10:47;;;;;;;14.40;5.53;;;5.70;99.90;;;;;;5096349;28;20372;-73
2023/10/18 03:13:13;;;;;;;14.02;5.80;;;5.70;99.90;;;;;;5096493;28;20017;-73
2023/10/18 03:15:52;;;;;;;12.73;4.95;;;5.70;99.90;;;;;;5096953;28;20024;-73
2023/10/18 03:18:24;;;;;;;12.68;5.07;;;5.70;99.90;;;;;;5096424;28;20104;-73
2023/10/18 03:20:55;;;;;;;13.70;4.75;;;5.70;99.90;;;;;;5095123;28;20422;-73
2023/10/18 03:23:21;;;;;;;14.52;5.70;;;5.60;99.90;;;;;;5094946;28;20031;-73
2023/10/18 03:25:48;;;;;;;10.75;4.68;;;5.60;99.90;;;;;;5096394;28;20036;-73
2023/10/18 03:28:14;;;;;;;14.43;5.22;;;5.60;99.90;;;;;;5096149;28;20502;-73
2023/10/18 03:30:44;;;;;;;10.90;5.05;;;5.60;99.90;;;;;;5096101;28;20024;-73
2023/10/18 03:33:12;;;;;;;13.90;5.35;;;5.60;99.90;;;;;;5096024;28;20074;-73
2023/10/18 03:35:41;;;;;;;10.70;4.97;;;5.60;99.90;;;;;;5096102;28;20361;-73
2023/10/18 03:38:29;;;;;;;11.63;5.10;;;5.60;99.90;;;;;;5094325;28;20035;-73
2023/10/18 03:40:57;;;;;;;11.80;5.03;;;5.50;99.90;;;;;;5095881;28;20093;-73
2023/10/18 03:43:26;;;;;;;10.50;5.15;;;5.60;99.90;;;;;;5095835;28;20154;-73
2023/10/18 03:49:01;;;;;;;13.20;5.03;;;5.60;99.90;;;;;;5073495;28;20094;-73
2023/10/18 03:51:29;;;;;;;11.18;5.50;;;5.60;99.90;;;;;;5092325;28;20158;-73
2023/10/18 03:53:55;;;;;;;13.65;4.97;;;5.60;99.90;;;;;;5095561;28;20502;-73
2023/10/18 03:56:22;;;;;;;12.77;5.47;;;5.60;99.90;;;;;;5094313;28;20012;-73
2023/10/18 03:59:40;;;;;;;13.27;5.68;;;5.70;99.90;;;;;;5095861;28;20107;-73
2023/10/18 04:01:44;;;;;;;12.38;5.10;;;5.70;99.90;;;;;;5089783;28;20024;-73
2023/10/18 04:04:18;;;;;;;12.15;5.93;;;5.70;99.90;;;;;;5095662;28;20027;-73
2023/10/18 04:06:43;;;;;;;12.43;5.47;;;5.70;99.90;;;;;;5095482;28;20384;-73
2023/10/18 04:09:16;;;;;;;11.18;5.43;;;5.60;99.90;;;;;;5095293;28;20020;-73
2023/10/18 04:11:42;;;;;;;14.05;5.47;;;5.60;99.90;;;;;;5096063;28;20016;-73
2023/10/18 04:14:10;;;;;;;11.27;5.22;;;5.60;99.90;;;;;;5095298;28;20020;-73
2023/10/18 04:16:36;;;;;;;13.13;5.68;;;5.60;99.90;;;;;;5095236;28;20490;-73
2023/10/18 04:19:02;;;;;;;13.50;5.68;;;5.60;99.90;;;;;;5095282;28;20099;-73
2023/10/18 04:21:27;;;;;;;12.43;6.07;;;5.70;99.90;;;;;;5095096;28;20091;-73
2023/10/18 04:23:56;;;;;;;15.57;5.82;;;5.60;99.90;;;;;;5093776;28;20059;-73
2023/10/18 04:26:25;;;;;;;12.35;6.00;;;5.60;99.90;;;;;;5095438;28;20383;-73
2023/10/18 04:28:57;;;;;;;14.32;4.95;;;5.60;99.90;;;;;;5095078;28;20471;-73
2023/10/18 04:31:24;;;;;;;13.13;5.22;;;5.70;99.90;;;;;;5095032;28;20498;-73
2023/10/18 04:33:54;;;;;;;13.43;5.10;;;5.60;99.90;;;;;;5095759;28;20020;-73
2023/10/18 04:36:23;;;;;;;12.95;5.55;;;5.60;99.90;;;;;;5094669;28;20028;-73
2023/10/18 04:38:51;;;;;;;14.63;5.85;;;5.60;99.90;;;;;;5094673;28;20017;-73
2023/10/18 04:43:46;;;;;;;12.05;5.32;;;5.50;99.90;;;;;;5095207;28;20039;-73
2023/10/18 04:51:44;;;;;;;15.23;6.07;;;5.50;99.90;;;;;;5094552;28;20116;-73
2023/10/18 04:54:18;;;;;;;14.48;5.22;;;5.50;99.90;;;;;;5093288;28;20426;-73
2023/10/18 04:56:45;;;;;;;11.70;5.30;;;5.60;99.90;;;;;;5094398;28;20475;-73
2023/10/18 05:04:32;;;;;;;13.85;5.63;;;5.50;99.90;;;;;;5094592;28;20043;-73
2023/10/18 05:07:20;;;;;;;12.30;5.23;;;5.50;99.90;;;;;;5094453;28;20475;-73
2023/10/18 05:09:45;;;;;;;14.30;5.78;;;5.50;99.90;;;;;;5093940;28;20653;-73
2023/10/18 05:14:49;;;;;;;13.60;6.00;;;5.60;99.90;;;;;;5094352;28;20031;-73
2023/10/18 05:17:18;;;;;;;14.80;5.55;;;5.60;99.90;;;;;;5093859;28;20101;-73
2023/10/18 05:19:44;;;;;;;13.30;5.45;;;5.60;99.90;;;;;;5094025;28;20024;-73
2023/10/18 05:22:20;;;;;;;13.45;5.40;;;5.60;99.90;;;;;;5093909;28;20487;-74
2023/10/18 05:24:55;;;;;;;14.13;5.55;;;5.60;99.90;;;;;;5093842;28;20556;-73
2023/10/18 05:27:27;;;;;;;15.80;5.63;;;5.60;99.90;;;;;;5094303;28;20020;-73
2023/10/18 05:29:59;;;;;;;13.02;5.70;;;5.60;99.90;;;;;;5093719;28;20028;-73
2023/10/18 05:35:03;;;;;;;12.88;5.97;;;5.50;99.90;;;;;;5094474;28;20024;-73
2023/10/18 05:37:33;;;;;;;14.38;5.68;;;5.60;99.90;;;;;;5093790;28;20494;-73
2023/10/18 05:42:47;;;;;;;13.95;5.13;;;;;;;;;;5094279;28;20039;-73
2023/10/18 05:45:13;;;;;;;12.10;5.18;;;5.50;99.90;;;;;;5093703;28;20433;-73
2023/10/18 05:47:42;;;;;;;13.05;5.47;;;;;;;;;;5093479;28;20082;-73
2023/10/18 05:50:12;;;;;;;14.27;5.05;;;5.60;99.90;;;;;;5093519;28;20472;-73
2023/10/18 05:52:39;;;;;;;14.82;5.25;;;5.50;99.90;;;;;;5093667;28;20020;-73
2023/10/18 05:55:09;;;;;;;12.48;5.20;;;5.60;99.90;;;;;;5092220;28;20059;-73
2023/10/18 05:57:34;;;;;;;11.93;5.05;;;5.60;99.90;;;;;;5093784;28;20449;-73
2023/10/18 06:00:05;;;;;;;12.55;4.97;;;5.60;99.90;;;;;;5093383;28;20016;-73
2023/10/18 06:02:31;;;;;;;13.70;5.25;;;5.60;99.90;;;;;;5093946;28;20105;-73
2023/10/18 06:04:56;;;;;;;13.45;5.20;;;5.60;99.90;;;;;;5093638;28;20487;-73
2023/10/18 06:07:26;;;;;;;11.38;5.20;;;5.50;99.90;;;;;;5093445;28;20095;-73
2023/10/18 06:09:58;;;;;;;12.85;5.78;;;5.50;99.90;;;;;;5093433;28;20114;-73
2023/10/18 06:12:27;;;;;;;13.30;5.20;;;5.50;99.90;;;;;;5093566;28;20023;-73
2023/10/18 06:14:53;;;;;;;13.00;4.88;;;5.50;99.90;;;;;;5092204;28;20035;-73
2023/10/18 06:17:25;;;;;;;11.65;5.07;;;5.50;99.90;;;;;;5092215;28;20111;-73
2023/10/18 06:19:51;;;;;;;11.30;4.80;;;5.50;99.90;;;;;;5092123;28;20435;-73
2023/10/18 06:22:29;;;;;;;14.57;5.55;;;5.50;99.90;;;;;;5093221;28;20059;-73
2023/10/18 06:24:57;;;;;;;12.73;4.75;;;5.60;99.90;;;;;;5093185;28;20027;-73
2023/10/18 06:27:23;;;;;;;11.52;4.68;;;5.60;99.90;;;;;;5091881;28;20047;-73
2023/10/18 06:29:54;;;;;;;14.95;5.35;;;5.60;99.90;;;;;;5091797;28;20032;-73
2023/10/18 06:32:25;;;;;;;12.00;4.72;;;5.60;99.90;;;;;;5093189;28;20467;-73
2023/10/18 06:34:56;;;;;;;14.38;4.75;;;5.60;99.90;;;;;;5093114;28;20021;-72
2023/10/18 06:37:22;;;;;;;12.95;4.68;;;5.60;99.90;;;;;;5093728;28;20020;-72
2023/10/18 06:39:51;;;;;;;9.65;4.80;;;5.60;99.90;;;;;;5093174;28;20032;-73
2023/10/18 06:42:17;;;;;;;11.45;5.18;;;5.60;99.90;;;;;;5091828;28;20031;-72
2023/10/18 06:44:43;;;;;;;10.25;4.25;;;5.60;99.90;;;;;;5093107;28;20048;-73
2023/10/18 06:47:13;;;;;;;11.70;4.80;;;5.70;99.90;;;;;;5093292;28;20067;-73
2023/10/18 06:49:42;;;;;;;14.07;5.68;;;5.70;99.90;;;;;;5093521;28;20477;-73
2023/10/18 06:52:09;;;;;;;9.75;4.45;;;5.80;99.90;;;;;;5093198;28;20044;-73
2023/10/18 06:54:38;;;;;;;12.48;4.60;;;5.80;99.90;;;;;;5091745;28;20387;-73
2023/10/18 06:57:18;;;;;;;10.52;4.75;;;5.80;99.90;;;;;;5091769;28;20016;-73
2023/10/18 06:59:46;;;;;;;11.95;4.35;;;5.90;99.90;;;;;;5092992;28;20030;-73
2023/10/18 07:02:12;;;;;;;11.93;4.30;;;6.00;99.90;;;;;;5092887;28;20024;-73
2023/10/18 07:04:38;;;;;;;8.60;4.30;;;6.00;99.90;;;;;;5092859;28;20070;-73
2023/10/18 07:07:11;;;;;;;9.98;4.55;;;6.10;99.90;;;;;;5092956;28;20024;-72
2023/10/18 07:09:37;;;;;;;11.63;5.13;;;6.00;99.90;;;;;;5092819;28;20111;-72
2023/10/18 07:12:03;;;;;;;8.65;3.58;;;6.10;99.90;;;;;;5094124;28;20548;-73
2023/10/18 07:14:31;;;;;;;10.18;4.35;;;6.20;99.90;;;;;;5116412;28;20028;-73
2023/10/18 07:17:00;;;;;;;10.60;3.92;;;6.30;99.90;;;;;;5115956;28;20026;-72
2023/10/18 07:22:19;;;;;;;13.02;4.90;;;6.30;99.90;;;;;;5116891;28;20042;-72
2023/10/18 07:24:55;;;;;;;8.48;3.70;;;6.40;99.90;;;;;;5116641;28;20050;-73
2023/10/18 07:27:23;;;;;;;11.15;4.00;;;6.50;99.90;;;;;;5116467;28;20497;-73
2023/10/18 07:29:49;;;;;;;9.87;4.37;;;6.50;99.90;;;;;;5116491;28;20030;-73
2023/10/18 07:32:23;;;;;;;11.77;3.80;;;6.50;99.90;;;;;;5116389;28;20024;-73
2023/10/18 07:34:49;;;;;;;13.32;4.57;;;6.60;99.90;;;;;;5116982;28;20047;-73
2023/10/18 07:37:21;;;;;;;13.00;4.28;;;6.60;99.90;;;;;;5097991;28;20015;-73
2023/10/18 07:39:56;;;;;;;9.63;4.47;;;6.70;99.90;;;;;;5116383;28;20105;-73
2023/10/18 07:42:22;;;;;;;8.90;4.15;;;6.80;99.90;;;;;;5116430;28;20047;-73
2023/10/18 07:44:53;;;;;;;10.60;3.33;;;6.80;99.90;;;;;;5116136;28;20016;-73
2023/10/18 07:47:20;;;;;;;7.05;3.53;;;6.80;99.90;;;;;;5115979;28;20046;-73
2023/10/18 07:49:45;;;;;;;8.57;3.40;;;6.80;99.90;;;;;;5116181;28;20020;-73
2023/10/18 07:52:12;;;;;;;12.40;3.63;;;6.90;99.90;;;;;;5116094;28;20094;-73
2023/10/18 07:54:37;;;;;;;8.02;3.25;;;7.00;99.90;;;;;;5116551;28;20095;-73
2023/10/18 07:57:03;;;;;;;10.65;3.20;;;7.10;99.90;;;;;;5115847;28;20447;-73
2023/10/18 07:59:30;;;;;;;11.00;3.50;;;7.10;99.90;;;;;;5115915;28;20512;-73
2023/10/18 08:02:12;;;;;;;6.82;3.00;;;7.10;99.90;;;;;;5116401;28;20076;-73
2023/10/18 08:04:40;;;;;;;6.45;3.00;;;7.30;99.90;;;;;;5115843;28;20376;-73
2023/10/18 08:07:15;;;;;;;8.98;3.35;;;7.30;99.90;;;;;;5115656;28;20060;-73
2023/10/18 08:09:48;;;;;;;9.45;3.53;;;7.40;99.90;;;;;;5115719;28;20028;-73
2023/10/18 08:12:33;;;;;;;8.13;3.08;;;7.50;99.90;;;;;;5115659;28;20054;-73
2023/10/18 08:14:59;;;;;;;8.60;3.15;;;7.70;99.90;;;;;;5115642;28;20024;-73
2023/10/18 08:17:43;;;;;;;6.75;2.55;;;7.70;99.90;;;;;;5115496;28;20030;-73
2023/10/18 08:20:28;;;;;;;8.30;2.67;;;7.80;99.90;;;;;;5115598;28;20398;-73
2023/10/18 08:22:54;;;;;;;8.48;2.95;;;7.80;99.90;;;;;;5115946;28;20482;-73
2023/10/18 08:26:03;;;;;;;8.98;2.67;;;8.00;99.90;;;;;;5114275;28;20064;-73
2023/10/18 08:28:13;;;;;;;6.50;3.05;;;8.10;99.90;;;;;;5111050;28;20032;-73
2023/10/18 08:33:08;;;;;;;6.00;2.03;;;8.30;99.90;;;;;;5115591;28;20096;-73
2023/10/18 08:35:34;;;;;;;7.05;1.90;;;8.40;99.90;;;;;;5096774;28;20051;-73
2023/10/18 08:38:01;;;;;;;6.00;2.33;;;8.60;99.90;;;;;;5096936;28;20023;-73
2023/10/18 08:40:28;;;;;;;5.43;2.50;;;8.70;99.90;;;;;;5114971;28;20478;-73
2023/10/18 08:43:06;;;;;;;6.32;2.05;;;8.80;99.90;;;;;;5115561;28;20051;-73
2023/10/18 08:45:46;;;;;;;7.53;2.83;;;8.90;99.90;;;;;;5115092;28;20070;-73
2023/10/18 08:48:16;;;;;;;5.03;2.15;;;9.00;99.90;;;;;;5114839;28;20031;-73
2023/10/18 08:50:42;;;;;;;6.53;2.10;;;9.00;99.90;;;;;;5115154;28;20022;-73
2023/10/18 08:53:09;;;;;;;4.68;2.10;;;9.10;99.90;;;;;;5096618;28;20385;-73
2023/10/18 08:55:45;;;;;;;7.28;2.30;;;9.10;99.90;;;;;;5114998;28;20442;-73
2023/10/18 08:58:20;;;;;;;7.28;2.53;;;9.10;99.90;;;;;;5114851;28;20392;-73
2023/10/18 09:03:23;;;;;;;4.82;1.65;;;9.20;99.90;;;;;;5114943;28;20023;-73
2023/10/18 09:05:53;;;;;;;;;;;9.30;99.90;;;;;;5096713;28;20019;-73
2023/10/18 09:08:23;;;;;;;5.88;2.08;;;9.40;99.90;;;;;;5096247;28;20298;-73
2023/10/18 09:10:54;;;;;;;6.63;2.63;;;9.60;99.90;;;;;;5096363;28;20027;-73
2023/10/18 09:18:25;;;;;;;4.97;1.65;;;9.90;99.90;;;;;;5114696;28;20034;-73
2023/10/18 09:20:55;;;;;;;3.28;1.90;;;9.90;99.90;;;;;;5096116;28;20028;-73
2023/10/18 09:23:24;;;;;;;4.97;1.63;;;9.80;99.90;;;;;;5114357;28;20030;-73
2023/10/18 09:25:51;;;;;;;5.00;1.88;;;9.90;99.90;;;;;;5095981;28;20122;-73
2023/10/18 09:28:30;;;;;;;3.45;1.33;;;9.90;99.90;;;;;;5114236;28;20042;-73
2023/10/18 09:31:09;;;;;;;5.63;1.73;;;9.90;99.90;;;;;;5114276;28;20081;-73
2023/10/18 09:33:36;;;;;;;4.20;1.83;;;10.10;99.90;;;;;;5095852;28;20018;-75
2023/10/18 09:36:02;;;;;;;4.32;1.50;;;10.10;99.90;;;;;;5113549;28;20020;-74
2023/10/18 09:38:43;;;;;;;3.88;1.13;;;10.20;99.90;;;;;;5095475;28;20042;-74
2023/10/18 09:41:09;;;;;;;3.72;1.35;;;10.20;99.90;;;;;;5114019;28;20081;-74
2023/10/18 09:43:38;;;;;;;3.63;1.80;;;10.30;99.90;;;;;;5113843;28;20471;-74
2023/10/18 09:46:10;;;;;;;;;;;10.30;99.90;;;;;;5114181;28;20039;-74
2023/10/18 09:48:41;;;;;;;4.80;2.13;;;10.40;99.90;;;;;;5113947;28;19949;-74
2023/10/18 09:51:14;;;;;;;3.17;1.60;;;10.40;99.90;;;;;;5114069;28;20047;-74
2023/10/18 09:53:49;;;;;;;2.80;1.38;;;10.50;99.90;;;;;;5113967;28;20015;-74
2023/10/18 09:56:19;;;;;;;7.00;1.58;;;10.80;99.90;;;;;;5113560;28;20020;-74
2023/10/18 09:58:49;;;;;;;3.33;1.05;;;10.80;99.90;;;;;;5125220;27;20068;-74
2023/10/18 10:01:25;;;;;;;5.43;1.88;;;11.00;99.90;;;;;;5122807;28;20030;-74
2023/10/18 10:03:52;;;;;;;3.20;1.20;;;11.40;99.90;;;;;;5113659;28;20020;-74
2023/10/18 10:06:25;;;;;;;4.75;1.90;;;11.40;99.90;;;;;;5113593;28;20068;-75
2023/10/18 10:08:55;;;;;;;11.80;1.85;;;11.60;99.90;;;;;;5113673;28;20023;-75
2023/10/18 10:11:24;;;;;;;3.22;1.13;;;11.80;99.90;;;;;;5113660;28;20027;-74
2023/10/18 10:13:58;;;;;;;3.13;1.10;;;11.80;99.90;;;;;;5113760;28;20023;-75
2023/10/18 10:16:24;;;;;;;5.28;1.50;;;11.90;99.90;;;;;;5113136;28;20394;-75
2023/10/18 10:18:52;;;;;;;4.43;1.70;;;11.90;99.90;;;;;;5113313;28;20016;-75
2023/10/18 10:21:21;;;;;;;2.72;1.30;;;12.00;99.90;;;;;;5095055;28;20436;-75
2023/10/18 10:23:55;;;;;;;3.22;1.15;;;12.10;99.90;;;;;;5113429;28;20030;-75
2023/10/18 10:26:27;;;;;;;4.40;1.42;;;12.20;99.90;;;;;;5113152;28;20019;-75
2023/10/18 10:31:51;;;;;;;4.78;1.35;;;12.30;99.90;;;;;;5113445;28;20089;-75
2023/10/18 10:34:27;;;;;;;3.70;0.85;;;12.30;99.90;;;;;;5094804;28;20103;-75
2023/10/18 10:37:02;;;;;;;3.88;1.05;;;12.40;99.90;;;;;;5113226;28;20016;-75
2023/10/18 10:39:32;;;;;;;3.38;1.20;;;12.50;99.90;;;;;;5113260;28;20016;-75
2023/10/18 10:51:20;;;;;;;5.20;1.13;;;12.70;99.90;;;;;;5130905;27;20027;-75
2023/10/18 10:53:54;;;;;;;5.68;1.80;;;12.70;99.90;;;;;;5137529;27;20035;-75
2023/10/18 10:56:20;;;;;;;2.60;0.95;;;12.70;99.90;;;;;;5137353;27;20026;-75
2023/10/18 10:58:57;;;;;;;3.70;1.20;;;12.80;99.90;;;;;;5137450;27;20061;-74
2023/10/18 11:04:27;;;;;;;2.95;1.10;;;12.90;99.90;;;;;;5137611;27;20031;-75
2023/10/18 11:07:03;;;;;;;4.85;0.90;;;13.00;99.90;;;;;;5137020;27;20098;-75
2023/10/18 11:09:34;;;;;;;4.93;1.08;;;13.10;99.90;;;;;;5137390;27;20023;-75
2023/10/18 11:12:07;;;;;;;3.50;0.90;;;13.10;99.90;;;;;;5118598;27;20037;-75
2023/10/18 11:14:35;;;;;;;3.45;1.33;;;13.20;99.90;;;;;;5137165;27;20059;-75
2023/10/18 11:17:17;;;;;;;2.90;0.80;;;13.30;99.90;;;;;;5136935;27;20022;-75
2023/10/18 11:19:44;;;;;;;3.65;1.17;;;13.30;99.90;;;;;;5136982;27;20034;-75
2023/10/18 11:22:11;;;;;;;2.20;0.65;;;13.40;99.90;;;;;;5136630;27;20023;-75
2023/10/18 11:24:39;;;;;;;3.35;1.25;;;13.50;99.90;;;;;;5136932;27;20023;-74
2023/10/18 11:27:08;;;;;;;4.27;0.87;;;13.60;99.90;;;;;;5136823;27;20060;-74
2023/10/18 11:29:38;;;;;;;2.22;0.80;;;13.70;99.90;;;;;;5136697;27;20319;-75
2023/10/18 11:32:06;;;;;;;3.20;1.23;;;13.70;99.90;;;;;;5136770;27;20042;-75
2023/10/18 11:34:33;;;;;;;5.35;1.23;;;13.80;99.90;;;;;;5136767;27;20497;-75
2023/10/18 11:37:02;;;;;;;2.17;0.80;;;13.90;99.90;;;;;;5136476;27;20019;-75
2023/10/18 11:39:34;;;;;;;2.67;0.68;;;14.10;99.90;;;;;;5136815;27;20489;-75
2023/10/18 11:42:00;;;;;;;3.85;0.85;;;14.20;99.90;;;;;;5136632;27;20023;-75
2023/10/18 11:44:30;;;;;;;3.13;1.02;;;14.30;99.90;;;;;;5136239;27;20512;-75
2023/10/18 11:47:11;;;;;;;2.85;1.08;;;14.20;99.90;;;;;;5136409;27;20023;-75
2023/10/18 11:49:39;;;;;;;5.82;1.42;;;14.30;99.90;;;;;;5117984;27;20054;-74
2023/10/18 11:52:11;;;;;;;5.77;1.27;;;14.40;99.90;;;;;;5136244;27;20019;-75
2023/10/18 11:54:37;;;;;;;2.78;0.65;;;14.50;99.90;;;;;;5136414;27;20040;-74
2023/10/18 11:57:15;;;;;;;2.40;0.80;;;14.50;99.90;;;;;;5136363;27;20061;-74
2023/10/18 11:59:52;;;;;;;1.85;0.80;;;14.70;99.90;;;;;;5136019;27;20047;-74
2023/10/18 12:02:18;;;;;;;2.95;1.00;;;14.80;99.90;;;;;;5136119;27;20027;-74
2023/10/18 12:04:48;;;;;;;1.98;0.90;;;14.90;99.90;;;;;;5136264;27;20527;-73
2023/10/18 12:07:14;;;;;;;1.88;0.73;;;15.00;99.90;;;;;;5136123;27;20054;-74
2023/10/18 12:09:43;;;;;;;2.05;0.90;;;15.00;99.90;;;;;;5135909;27;20023;-74
2023/10/18 12:12:12;;;;;;;2.10;0.43;;;15.10;99.90;;;;;;5135968;27;20019;-74
2023/10/18 12:14:41;;;;;;;4.07;1.25;;;15.10;99.90;;;;;;5135889;27;20059;-74
2023/10/18 12:17:07;;;;;;;5.47;1.10;;;15.10;99.90;;;;;;5135865;27;20431;-74
2023/10/18 12:19:35;;;;;;;1.35;0.63;;;15.10;99.90;;;;;;5136099;27;20024;-74
2023/10/18 12:22:01;;;;;;;4.78;1.13;;;15.10;99.90;;;;;;5135818;27;20489;-74
2023/10/18 12:24:33;;;;;;;3.00;1.25;;;15.20;99.90;;;;;;5135606;27;20039;-74
2023/10/18 12:27:33;;;;;;;3.03;0.73;;;15.40;99.90;;;;;;5135980;27;20027;-74
2023/10/18 12:32:51;;;;;;;3.95;0.93;;;15.70;99.90;;;;;;5136161;27;20098;-74
2023/10/18 12:35:19;;;;;;;2.00;1.00;;;15.90;99.90;;;;;;5135452;27;20072;-74
2023/10/18 12:37:45;;;;;;;2.60;0.82;;;16.00;99.90;;;;;;5135556;27;20382;-74
2023/10/18 12:43:01;;;;;;;1.92;0.90;;;16.10;99.90;;;;;;5096879;27;20031;-74
2023/10/18 12:45:35;;;;;;;3.92;1.33;;;16.20;99.90;;;;;;5135309;27;20039;-76
2023/10/18 12:48:08;;;;;;;2.80;0.82;;;16.20;99.90;;;;;;5116690;27;20073;-75
2023/10/18 12:50:34;;;;;;;4.20;0.93;;;16.20;99.90;;;;;;5135636;27;20363;-76
2023/10/18 12:55:46;;;;;;;2.20;1.00;;;16.00;99.90;;;;;;5135530;27;20057;-76
2023/10/18 12:58:18;;;;;;;2.42;0.57;;;15.90;99.90;;;;;;5135104;27;20080;-75
2023/10/18 13:00:53;;;;;;;4.20;0.70;;;15.70;99.90;;;;;;5135480;27;20106;-76
2023/10/18 13:03:23;;;;;;;2.92;0.93;;;15.50;99.90;;;;;;5135179;27;20390;-76
2023/10/18 13:05:52;;;;;;;2.80;0.82;;;15.50;99.90;;;;;;5134870;27;20047;-76
2023/10/18 13:08:22;;;;;;;;;;;15.60;99.90;;;;;;5135199;27;20026;-76
2023/10/18 13:13:30;;;;;;;5.78;1.50;;;15.90;99.90;;;;;;5135301;27;20034;-76
2023/10/18 13:15:59;;;;;;;3.65;1.25;;;16.00;99.90;;;;;;5134735;27;20024;-76
2023/10/18 13:18:28;;;;;;;3.80;1.40;;;16.00;99.90;;;;;;5134531;27;20083;-76
2023/10/18 13:21:05;;;;;;;2.40;0.60;;;16.10;99.90;;;;;;5134723;27;20110;-76
2023/10/18 13:23:31;;;;;;;4.63;0.63;;;16.20;99.90;;;;;;5134505;27;20023;-75
2023/10/18 13:25:57;;;;;;;1.48;0.65;;;16.30;99.90;;;;;;5134559;27;20026;-76
2023/10/18 13:28:33;;;;;;;2.63;0.70;;;16.40;99.90;;;;;;5121499;27;20048;-76
2023/10/18 13:31:04;;;;;;;1.70;0.70;;;16.50;99.90;;;;;;5095770;28;20045;-76
2023/10/18 13:33:33;;;;;;;2.33;0.75;;;16.60;99.90;;;;;;5114281;28;20011;-76
2023/10/18 13:36:04;;;;;;;0.85;0.40;;;16.60;99.90;;;;;;5095603;28;20019;-76
2023/10/18 13:38:29;;;;;;;2.78;0.52;;;16.70;99.90;;;;;;5114042;28;20065;-75
2023/10/18 13:40:55;;;;;;;4.32;0.40;;;16.80;99.90;;;;;;5113650;28;20031;-75
2023/10/18 13:43:24;;;;;;;4.85;1.00;;;17.00;99.90;;;;;;5095445;28;20030;-75
2023/10/18 13:45:57;;;;;;;;;;;17.10;99.90;;;;;;5095657;28;20547;-74
2023/10/18 13:48:24;;;;;;;3.78;0.93;;;17.20;99.90;;;;;;5113691;28;19998;-74
2023/10/18 13:50:53;;;;;;;1.60;0.50;;;17.30;99.90;;;;;;5113626;28;20386;-74
2023/10/18 13:53:21;;;;;;;;;;;17.80;99.90;;;;;;5113982;28;20262;-74
2023/10/18 13:55:47;;;;;;;2.63;0.80;;;16.90;99.90;;;;;;5095611;28;19903;-74
2023/10/18 13:58:12;;;;;;;2.33;0.95;;;16.70;99.90;;;;;;5113408;28;20019;-73
2023/10/18 14:00:43;;;;;;;2.17;1.45;;;16.60;99.90;;;;;;5114012;28;20027;-74
2023/10/18 14:03:09;;;;;;;2.33;0.40;;;18.70;99.90;;;;;;5095364;28;20100;-74
2023/10/18 14:05:40;;;;;;;1.52;0.40;;;16.50;99.90;;;;;;5113459;28;20019;-74
2023/10/18 14:08:07;;;;;;;1.88;0.82;;;16.00;99.90;;;;;;5113433;28;20032;-74
2023/10/18 14:10:35;;;;;;;2.25;0.45;;;15.90;99.90;;;;;;5113469;28;20058;-74